createdAt,value
2023-02-14T00:04:00.750Z,102271.91
2023-02-14T00:09:02.502Z,102261.09
2023-02-14T00:14:23.334Z,102265.72
2023-02-14T00:19:24.951Z,102264.84
2023-02-14T00:24:27.002Z,102263.50
2023-02-14T00:29:31.336Z,102263.38
2023-02-14T00:34:33.584Z,102252.22
2023-02-14T00:39:35.158Z,102252.84
2023-02-14T00:44:37.975Z,102247.69
2023-02-14T00:49:39.672Z,102252.25
2023-02-14T00:54:41.206Z,102253.34
2023-02-14T00:59:42.761Z,102249.41
2023-02-14T01:04:44.381Z,102261.53
2023-02-14T01:09:45.931Z,102260.03
2023-02-14T01:14:47.539Z,102262.13
2023-02-14T01:19:52.304Z,102267.47
2023-02-14T01:24:53.842Z,102276.25
2023-02-14T01:29:56.707Z,102267.41
2023-02-14T01:34:58.685Z,102273.22
2023-02-14T01:40:00.464Z,102280.38
2023-02-14T01:45:21.122Z,102271.31
2023-02-14T01:50:28.889Z,102271.44
2023-02-14T01:55:34.068Z,102275.25
2023-02-14T02:00:55.889Z,102280.59
2023-02-14T02:06:11.107Z,102270.41
2023-02-14T02:11:12.644Z,102270.06
2023-02-14T02:16:44.760Z,102277.66
2023-02-14T02:21:55.134Z,102270.06
2023-02-14T02:27:32.059Z,102259.84
2023-02-14T02:33:01.551Z,102257.09
2023-02-14T02:38:23.395Z,102256.25
2023-02-14T02:43:36.935Z,102250.28
2023-02-14T02:48:47.875Z,102257.56
2023-02-14T02:54:02.890Z,102257.94
2023-02-14T02:59:20.852Z,102242.31
2023-02-14T03:04:46.687Z,102244.28
2023-02-14T03:09:54.555Z,102252.88
2023-02-14T03:15:22.613Z,102256.53
2023-02-14T03:20:33.681Z,102249.66
2023-02-14T03:25:52.878Z,102248.75
2023-02-14T03:31:28.430Z,102249.06
2023-02-14T03:36:48.981Z,102258.22
2023-02-14T03:41:59.875Z,102251.34
2023-02-14T03:47:07.875Z,102251.00
2023-02-14T03:52:11.218Z,102252.72
2023-02-14T03:57:21.849Z,102262.41
2023-02-14T04:02:34.967Z,102262.41
2023-02-14T04:07:46.993Z,102259.81
2023-02-14T04:12:48.746Z,102266.06
2023-02-14T04:18:08.810Z,102265.44
2023-02-14T04:23:10.438Z,102257.22
2023-02-14T04:28:12.908Z,102255.19
2023-02-14T04:33:14.444Z,102254.97
2023-02-14T04:38:16.003Z,102253.69
2023-02-14T04:43:18.120Z,102254.53
2023-02-14T04:48:19.709Z,102256.94
2023-02-14T04:53:22.120Z,102253.03
2023-02-14T04:58:23.670Z,102257.47
2023-02-14T05:03:27.598Z,102252.63
2023-02-14T05:08:29.234Z,102240.47
2023-02-14T05:13:32.104Z,102244.53
2023-02-14T05:18:33.801Z,102242.19
2023-02-14T05:23:35.396Z,102245.19
2023-02-14T05:28:37.041Z,102251.84
2023-02-14T05:33:38.593Z,102250.47
2023-02-14T05:38:40.111Z,102245.63
2023-02-14T05:43:41.702Z,102249.69
2023-02-14T05:48:43.376Z,102267.41
2023-02-14T05:53:44.978Z,102270.00
2023-02-14T05:58:46.730Z,102268.59
2023-02-14T06:03:48.408Z,102275.72
2023-02-14T06:08:50.002Z,102266.16
2023-02-14T06:13:51.735Z,102272.09
2023-02-14T06:18:53.459Z,102275.19
2023-02-14T06:23:55.220Z,102277.88
2023-02-14T06:28:59.019Z,102285.53
2023-02-14T06:34:00.920Z,102284.63
2023-02-14T06:39:02.657Z,102287.69
2023-02-14T06:44:04.321Z,102287.75
2023-02-14T06:49:05.969Z,102291.09
2023-02-14T06:54:07.807Z,102289.56
2023-02-14T06:59:09.396Z,102292.69
2023-02-14T07:04:11.013Z,102293.06
2023-02-14T07:09:16.880Z,102303.19
2023-02-14T07:14:18.519Z,102302.78
2023-02-14T07:19:20.343Z,102292.78
2023-02-14T07:24:24.376Z,102297.47
2023-02-14T07:29:31.334Z,102301.16
2023-02-14T07:34:33.147Z,102297.69
2023-02-14T07:39:34.723Z,102293.59
2023-02-14T07:44:38.945Z,102289.25
2023-02-14T07:49:40.482Z,102291.84
2023-02-14T07:54:42.201Z,102290.81
2023-02-14T07:59:49.522Z,102298.34
2023-02-14T08:04:52.407Z,102303.00
2023-02-14T08:09:54.178Z,102303.31
2023-02-14T08:15:15.924Z,102297.31
2023-02-14T08:20:17.724Z,102293.09
2023-02-14T08:25:25.374Z,102291.16
2023-02-14T08:30:26.985Z,102291.22
2023-02-14T08:35:28.595Z,102297.44
2023-02-14T08:40:30.667Z,102291.75
2023-02-14T08:45:32.388Z,102297.03
2023-02-14T08:50:35.016Z,102290.75
2023-02-14T08:55:37.306Z,102292.63
2023-02-14T09:00:39.150Z,102288.59
2023-02-14T09:05:40.868Z,102291.28
2023-02-14T09:10:42.833Z,102302.56
2023-02-14T09:15:44.436Z,102302.16
2023-02-14T09:20:46.104Z,102291.47
2023-02-14T09:25:47.627Z,102283.19
2023-02-14T09:30:49.256Z,102280.06
2023-02-14T09:35:50.852Z,102288.88
2023-02-14T09:40:52.409Z,102283.28
2023-02-14T09:45:57.605Z,102268.28
2023-02-14T09:51:25.516Z,102275.75
2023-02-14T09:56:51.564Z,102258.25
2023-02-14T10:02:07.148Z,102265.13
2023-02-14T10:07:56.483Z,102263.19
2023-02-14T10:13:19.294Z,102254.34
2023-02-14T10:18:25.787Z,102233.59
2023-02-14T10:23:49.426Z,102239.56
2023-02-14T10:28:51.054Z,102250.72
2023-02-14T10:34:17.607Z,102250.31
2023-02-14T10:39:40.628Z,102255.94
2023-02-14T10:44:54.869Z,102238.19
2023-02-14T10:50:15.408Z,102228.94
2023-02-14T10:55:39.894Z,102231.28
2023-02-14T11:00:48.957Z,102227.25
2023-02-14T11:05:51.035Z,102212.22
2023-02-14T11:10:55.567Z,102211.88
2023-02-14T11:16:08.943Z,102195.16
2023-02-14T11:21:17.871Z,102174.53
2023-02-14T11:26:29.997Z,102172.88
2023-02-14T11:31:37.714Z,102174.59
2023-02-14T11:36:42.199Z,102159.19
2023-02-14T11:41:56.184Z,102154.66
2023-02-14T11:47:15.941Z,102139.94
2023-02-14T11:52:19.601Z,102135.13
2023-02-14T11:57:33.303Z,102125.44
2023-02-14T12:02:45.731Z,102110.28
2023-02-14T12:07:59.992Z,102114.88
2023-02-14T12:13:04.241Z,102104.75
2023-02-14T12:18:22.462Z,102088.88
2023-02-14T12:23:39.320Z,102075.44
2023-02-14T12:28:48.160Z,102052.00
2023-02-14T12:33:50.679Z,102061.47
2023-02-14T12:39:08.587Z,102069.56
2023-02-14T12:44:38.032Z,102064.44
2023-02-14T12:50:16.809Z,102052.91
2023-02-14T12:55:28.982Z,102027.84
2023-02-14T13:00:57.334Z,102023.81
2023-02-14T13:06:10.265Z,102039.50
2023-02-14T13:11:47.412Z,102025.09
2023-02-14T13:16:57.550Z,102020.06
2023-02-14T13:22:01.213Z,102006.16
2023-02-14T13:27:06.907Z,101998.97
2023-02-14T13:32:14.241Z,101996.72
2023-02-14T13:37:23.857Z,101990.44
2023-02-14T13:42:46.900Z,101992.00
2023-02-14T13:47:48.465Z,101985.31
2023-02-14T13:52:50.242Z,101986.59
2023-02-14T13:58:06.732Z,101987.31
2023-02-14T14:03:14.697Z,101989.44
2023-02-14T14:08:27.581Z,101980.78
2023-02-14T14:13:42.689Z,101983.19
2023-02-14T14:18:44.510Z,101972.06
2023-02-14T14:24:04.066Z,101968.22
2023-02-14T14:29:18.200Z,101960.78
2023-02-14T14:34:20.155Z,101962.78
2023-02-14T14:39:31.472Z,101964.22
2023-02-14T14:44:35.326Z,101957.38
2023-02-14T14:49:36.921Z,101951.09
2023-02-14T14:54:39.577Z,101949.69
2023-02-14T14:59:41.369Z,101938.84
2023-02-14T15:04:42.941Z,101934.53
2023-02-14T15:09:44.764Z,101925.66
2023-02-14T15:14:54.471Z,101922.69
2023-02-14T15:19:58.407Z,101917.66
2023-02-14T15:25:00.381Z,101911.09
2023-02-14T15:30:09.845Z,101924.47
2023-02-14T15:35:14.748Z,101924.22
2023-02-14T15:40:27.862Z,101922.97
2023-02-14T15:45:30.909Z,101927.28
2023-02-14T15:50:35.315Z,101920.16
2023-02-14T15:55:37.077Z,101920.75
2023-02-14T16:00:38.706Z,101926.13
2023-02-14T16:05:46.873Z,101923.00
2023-02-14T16:11:04.495Z,101929.09
2023-02-14T16:16:17.069Z,101930.47
2023-02-14T16:21:19.983Z,101936.81
2023-02-14T16:26:21.680Z,101928.31
2023-02-14T16:31:25.228Z,101929.94
2023-02-14T16:36:29.480Z,101931.81
2023-02-14T16:41:33.854Z,101925.03
2023-02-14T16:46:35.722Z,101930.16
2023-02-14T16:51:37.674Z,101938.81
2023-02-14T16:56:44.488Z,101950.31
2023-02-14T17:01:46.251Z,101952.44
2023-02-14T17:06:53.927Z,101961.16
2023-02-14T17:11:58.561Z,101960.19
2023-02-14T17:17:00.457Z,101956.19
2023-02-14T17:22:04.462Z,101958.91
2023-02-14T17:27:07.531Z,101957.31
2023-02-14T17:32:12.977Z,101970.28
2023-02-14T17:37:14.662Z,101973.00
2023-02-14T17:42:16.191Z,101970.88
2023-02-14T17:47:18.279Z,101969.63
2023-02-14T17:52:21.990Z,101965.59
2023-02-14T17:57:23.840Z,101948.19
2023-02-14T18:02:25.851Z,101952.59
2023-02-14T18:07:27.407Z,101951.34
2023-02-14T18:12:28.945Z,101948.59
2023-02-14T18:17:30.473Z,101945.63
2023-02-14T18:22:32.062Z,101948.81
2023-02-14T18:27:33.588Z,101949.78
2023-02-14T18:32:35.192Z,101949.38
2023-02-14T18:37:36.783Z,101936.59
2023-02-14T18:42:38.299Z,101935.56
2023-02-14T18:47:39.954Z,101932.69
2023-02-14T18:52:41.586Z,101938.13
2023-02-14T18:57:43.109Z,101938.34
2023-02-14T19:02:44.793Z,101931.47
2023-02-14T19:07:46.356Z,101939.59
2023-02-14T19:12:47.926Z,101941.00
2023-02-14T19:17:49.655Z,101946.25
2023-02-14T19:22:51.231Z,101943.34
2023-02-14T19:27:52.912Z,101940.91
2023-02-14T19:32:54.460Z,101934.13
2023-02-14T19:37:56.002Z,101935.34
2023-02-14T19:42:57.839Z,101928.59
2023-02-14T19:47:59.419Z,101921.69
2023-02-14T19:53:00.948Z,101917.56
2023-02-14T19:58:02.706Z,101905.03
2023-02-14T20:03:04.296Z,101899.69
2023-02-14T20:08:06.637Z,101894.03
2023-02-14T20:13:08.199Z,101892.63
2023-02-14T20:18:09.760Z,101895.31
2023-02-14T20:23:11.289Z,101882.81
2023-02-14T20:28:12.824Z,101878.19
2023-02-14T20:33:14.351Z,101875.69
2023-02-14T20:38:16.590Z,101870.97
2023-02-14T20:43:18.149Z,101873.22
2023-02-14T20:48:19.687Z,101866.97
2023-02-14T20:53:21.869Z,101856.63
2023-02-14T20:58:23.378Z,101858.88
2023-02-14T21:03:24.970Z,101848.69
2023-02-14T21:08:26.558Z,101851.13
2023-02-14T21:13:28.164Z,101849.72
2023-02-14T21:18:30.664Z,101845.22
2023-02-14T21:23:32.282Z,101844.72
2023-02-14T21:28:33.868Z,101846.06
2023-02-14T21:33:36.171Z,101841.06
2023-02-14T21:38:37.940Z,101839.63
2023-02-14T21:43:42.082Z,101841.31
2023-02-14T21:49:03.189Z,101836.84
2023-02-14T21:54:05.408Z,101829.25
2023-02-14T21:59:07.324Z,101829.56
2023-02-14T22:04:11.367Z,101829.19
2023-02-14T22:09:14.197Z,101824.91
2023-02-14T22:14:16.032Z,101823.06
2023-02-14T22:19:17.606Z,101831.91
2023-02-14T22:24:19.195Z,101824.56
2023-02-14T22:29:20.911Z,101822.84
2023-02-14T22:34:22.440Z,101823.19
2023-02-14T22:39:24.060Z,101815.56
2023-02-14T22:44:25.684Z,101810.84
2023-02-14T22:49:27.222Z,101816.97
2023-02-14T22:54:28.742Z,101820.91
2023-02-14T22:59:32.108Z,101818.22
2023-02-14T23:04:33.608Z,101813.00
2023-02-14T23:09:35.144Z,101817.16
2023-02-14T23:14:55.489Z,101821.50
2023-02-14T23:20:15.754Z,101816.34
2023-02-14T23:25:17.395Z,101820.56
2023-02-14T23:30:19.467Z,101825.69
2023-02-14T23:35:21.047Z,101821.34
2023-02-14T23:40:22.657Z,101826.66
2023-02-14T23:45:36.066Z,101821.19
2023-02-14T23:50:38.255Z,101814.38
2023-02-14T23:55:39.761Z,101820.31
